Time;durP1;ratioP1;P1;durP2;ratioP2;P2;SDS_P1;SDS_P2;PMS_P1;PMS_P2;Temp;Humidity;BMP_temperature;BMP_pressure;BME280_temperature;BME280_humidity;BME280_pressure;Samples;Min_cycle;Max_cycle;Signal;HPM_P1;HPM_P2
2021/05/19 00:02:22;;;;;;;3.13;2.92;;;8.80;99.90;;;;;;4946321;28;20579;-63
2021/05/19 00:04:50;;;;;;;4.97;3.38;;;8.80;99.90;;;;;;4942075;28;20067;-64
2021/05/19 00:07:17;;;;;;;3.33;3.03;;;8.80;99.90;;;;;;4942594;28;20066;-63
2021/05/19 00:09:44;;;;;;;4.95;3.63;;;8.80;99.90;;;;;;4941609;28;20114;-63
2021/05/19 00:12:11;;;;;;;3.83;3.45;;;8.80;99.90;;;;;;4941791;28;20059;-63
2021/05/19 00:14:38;;;;;;;3.00;2.60;;;8.80;99.90;;;;;;4940365;28;20383;-64
2021/05/19 00:17:05;;;;;;;3.88;3.53;;;8.70;99.90;;;;;;4944541;28;20493;-64
2021/05/19 00:19:32;;;;;;;5.85;3.97;;;8.70;99.90;;;;;;4938071;28;20067;-63
2021/05/19 00:21:59;;;;;;;7.03;3.50;;;8.70;99.90;;;;;;4945116;28;20114;-64
2021/05/19 00:24:26;;;;;;;4.05;3.72;;;8.80;99.90;;;;;;4941482;28;20102;-64
2021/05/19 00:26:53;;;;;;;3.25;2.83;;;8.80;99.90;;;;;;4945974;28;20047;-64
2021/05/19 00:29:20;;;;;;;3.47;3.17;;;8.90;99.90;;;;;;4940169;28;20127;-63
2021/05/19 00:31:47;;;;;;;4.38;2.90;;;9.00;99.90;;;;;;4948298;28;20083;-63
2021/05/19 00:34:14;;;;;;;3.50;3.20;;;9.10;99.90;;;;;;4939692;28;20082;-64
2021/05/19 00:36:42;;;;;;;2.92;2.72;;;9.20;99.90;;;;;;4946583;28;20055;-63
2021/05/19 00:39:11;;;;;;;5.55;3.25;;;9.40;99.90;;;;;;4943589;28;20059;-63
2021/05/19 00:41:42;;;;;;;5.28;4.18;;;9.40;99.90;;;;;;4940722;28;20047;-64
2021/05/19 00:44:13;;;;;;;3.75;3.38;;;9.40;99.90;;;;;;4938390;28;20047;-64
2021/05/19 00:46:47;;;;;;;3.90;3.60;;;9.50;99.90;;;;;;4949788;28;20047;-63
2021/05/19 00:49:16;;;;;;;3.70;3.33;;;9.50;99.90;;;;;;4943392;28;20422;-63
2021/05/19 00:51:44;;;;;;;6.32;3.88;;;9.50;99.90;;;;;;4947145;28;20043;-63
2021/05/19 00:54:11;;;;;;;5.50;3.90;;;9.50;99.90;;;;;;4947606;28;20054;-64
2021/05/19 00:56:40;;;;;;;4.20;3.80;;;9.40;99.90;;;;;;4961549;28;20055;-64
2021/05/19 00:59:11;;;;;;;6.32;3.55;;;9.40;99.90;;;;;;4935497;28;20059;-63
2021/05/19 01:01:41;;;;;;;5.13;4.03;;;9.40;99.90;;;;;;4958079;28;20155;-64
2021/05/19 01:04:12;;;;;;;4.10;3.70;;;9.40;99.90;;;;;;4929838;28;20066;-64
2021/05/19 01:07:19;;;;;;;5.50;5.03;;;9.40;99.90;;;;;;4923796;28;20047;-64
2021/05/19 01:09:48;;;;;;;7.93;4.90;;;9.40;99.90;;;;;;4928678;29;20146;-64
2021/05/19 01:12:18;;;;;;;4.75;4.35;;;9.40;99.90;;;;;;4948350;28;20043;-64
2021/05/19 01:14:46;;;;;;;;;;;9.40;99.90;;;;;;4948295;28;20051;-64
2021/05/19 01:17:13;;;;;;;6.20;4.00;;;9.40;99.90;;;;;;4943233;28;19935;-64
2021/05/19 01:19:51;;;;;;;9.20;4.05;;;9.30;99.90;;;;;;4945948;28;20052;-63
2021/05/19 01:22:27;;;;;;;5.03;3.92;;;9.20;99.90;;;;;;4945120;28;20414;-63
2021/05/19 01:24:55;;;;;;;4.20;3.80;;;9.20;99.90;;;;;;4944142;28;20472;-63
2021/05/19 01:27:23;;;;;;;4.22;3.80;;;9.10;99.90;;;;;;4944749;28;20050;-63
2021/05/19 01:29:55;;;;;;;5.63;5.13;;;9.10;99.90;;;;;;4947682;28;20049;-63
2021/05/19 01:32:23;;;;;;;4.80;4.30;;;9.00;99.90;;;;;;4962359;28;20039;-64
2021/05/19 01:34:51;;;;;;;4.90;4.50;;;9.00;99.90;;;;;;4950694;28;20055;-64
2021/05/19 01:37:18;;;;;;;4.75;4.35;;;9.00;99.90;;;;;;4927968;28;20052;-63
2021/05/19 01:39:49;;;;;;;5.20;3.92;;;9.00;99.90;;;;;;4926126;29;20059;-64
2021/05/19 01:42:16;;;;;;;4.10;3.78;;;8.90;99.90;;;;;;4943737;28;20142;-64
2021/05/19 01:44:46;;;;;;;5.95;4.15;;;8.90;99.90;;;;;;4958820;28;20130;-63
2021/05/19 01:47:41;;;;;;;5.57;5.13;;;8.90;99.90;;;;;;4934666;28;20059;-63
2021/05/19 01:50:11;;;;;;;5.75;4.00;;;9.00;99.90;;;;;;4942358;28;20054;-63
2021/05/19 01:52:39;;;;;;;6.53;3.88;;;9.10;99.90;;;;;;4937600;28;20043;-64
2021/05/19 01:55:07;;;;;;;6.50;4.35;;;9.10;99.90;;;;;;4961893;28;20436;-63
2021/05/19 01:57:36;;;;;;;6.03;4.63;;;9.00;99.90;;;;;;4927481;28;20043;-64
2021/05/19 02:00:06;;;;;;;6.60;5.43;;;9.00;99.90;;;;;;4959405;28;20091;-64
2021/05/19 02:02:42;;;;;;;6.35;4.20;;;9.00;99.90;;;;;;4944348;28;20431;-63
2021/05/19 02:05:16;;;;;;;3.70;3.35;;;9.00;99.90;;;;;;4942710;28;20143;-64
2021/05/19 02:07:44;;;;;;;4.45;4.05;;;8.90;99.90;;;;;;4953399;28;20146;-63
2021/05/19 02:10:11;;;;;;;4.90;3.55;;;9.00;99.90;;;;;;4943763;28;20039;-63
2021/05/19 02:12:41;;;;;;;4.22;3.80;;;9.00;99.90;;;;;;4945075;28;20058;-64
2021/05/19 02:15:11;;;;;;;4.53;4.03;;;9.00;99.90;;;;;;4944375;28;20051;-63
2021/05/19 02:17:38;;;;;;;4.95;4.10;;;9.00;99.90;;;;;;4946341;28;20145;-64
2021/05/19 02:20:10;;;;;;;4.43;4.05;;;8.90;99.90;;;;;;4930856;28;20541;-63
2021/05/19 02:22:38;;;;;;;5.13;3.97;;;9.00;99.90;;;;;;4932573;29;20387;-64
2021/05/19 02:25:06;;;;;;;5.30;3.83;;;9.10;99.90;;;;;;4941662;28;20881;-64
2021/05/19 02:27:33;;;;;;;4.82;3.85;;;9.10;99.90;;;;;;4945178;28;20510;-64
2021/05/19 02:30:01;;;;;;;5.22;3.40;;;9.00;99.90;;;;;;4929043;28;20073;-63
2021/05/19 02:32:28;;;;;;;4.30;3.97;;;9.00;99.90;;;;;;4930272;29;20051;-64
2021/05/19 02:34:58;;;;;;;5.80;5.20;;;9.00;99.90;;;;;;4922416;28;20044;-64
2021/05/19 02:37:26;;;;;;;4.13;3.72;;;9.00;99.90;;;;;;4940159;28;20047;-63
2021/05/19 02:39:53;;;;;;;3.75;3.45;;;9.00;99.90;;;;;;4928920;28;20441;-64
2021/05/19 02:42:21;;;;;;;3.88;3.47;;;9.10;99.90;;;;;;4943122;28;20055;-64
2021/05/19 02:44:49;;;;;;;3.47;2.70;;;9.10;99.90;;;;;;4942670;28;20047;-64
2021/05/19 02:47:16;;;;;;;7.45;4.20;;;9.10;99.90;;;;;;4942122;28;20074;-63
2021/05/19 02:49:43;;;;;;;3.67;3.35;;;9.30;99.90;;;;;;4945596;28;20051;-64
2021/05/19 02:52:10;;;;;;;3.33;2.72;;;9.40;99.90;;;;;;4944825;28;20545;-64
2021/05/19 02:54:37;;;;;;;4.43;3.67;;;9.40;99.90;;;;;;4945866;28;20059;-64
2021/05/19 02:57:05;;;;;;;4.45;4.00;;;9.40;99.90;;;;;;4942886;28;20059;-64
2021/05/19 02:59:32;;;;;;;4.20;3.13;;;9.50;99.90;;;;;;4941675;28;20051;-63
2021/05/19 03:01:58;;;;;;;2.80;2.60;;;9.40;99.90;;;;;;4944873;28;20054;-64
2021/05/19 03:04:26;;;;;;;5.45;4.35;;;9.40;99.90;;;;;;4940761;28;20043;-63
2021/05/19 03:06:52;;;;;;;3.90;3.30;;;9.40;99.90;;;;;;4930020;28;20055;-64
2021/05/19 03:09:19;;;;;;;3.67;3.38;;;9.40;99.90;;;;;;4926682;28;20071;-64
2021/05/19 03:11:47;;;;;;;5.97;3.10;;;9.40;99.90;;;;;;4926855;29;20121;-63
2021/05/19 03:14:14;;;;;;;6.63;2.75;;;9.40;99.90;;;;;;4923349;29;20379;-64
2021/05/19 03:16:41;;;;;;;5.97;3.08;;;9.30;99.90;;;;;;4923720;29;20055;-63
2021/05/19 03:19:08;;;;;;;9.43;3.85;;;9.40;99.90;;;;;;4925227;29;20080;-63
2021/05/19 03:21:36;;;;;;;4.18;2.53;;;9.40;99.90;;;;;;4922609;29;20048;-63
2021/05/19 03:24:03;;;;;;;7.00;3.83;;;9.40;99.90;;;;;;4923272;29;20086;-64
2021/05/19 03:26:32;;;;;;;3.25;2.95;;;9.40;99.90;;;;;;4923872;29;20491;-64
2021/05/19 03:28:58;;;;;;;4.45;2.33;;;9.50;99.90;;;;;;4924853;29;20059;-63
2021/05/19 03:31:25;;;;;;;3.72;3.42;;;9.50;99.90;;;;;;4922888;29;20066;-63
2021/05/19 03:33:52;;;;;;;3.35;3.03;;;9.50;99.90;;;;;;4923630;29;20047;-64
2021/05/19 03:36:19;;;;;;;5.25;3.30;;;9.50;99.90;;;;;;4919578;29;20051;-64
2021/05/19 03:38:46;;;;;;;6.75;3.92;;;9.50;99.90;;;;;;4922359;29;20059;-63
2021/05/19 03:41:14;;;;;;;3.80;3.10;;;9.60;99.90;;;;;;4930646;28;20051;-63
2021/05/19 03:43:41;;;;;;;5.47;2.70;;;9.50;99.90;;;;;;4927065;29;20078;-63
2021/05/19 03:46:08;;;;;;;8.00;4.20;;;9.50;99.90;;;;;;4923233;29;20052;-63
2021/05/19 03:48:35;;;;;;;3.83;3.15;;;9.60;99.90;;;;;;4925833;29;20378;-64
2021/05/19 03:51:02;;;;;;;4.10;3.03;;;9.60;99.90;;;;;;4924468;29;20055;-64
2021/05/19 03:53:29;;;;;;;4.32;3.55;;;9.60;99.90;;;;;;4927646;29;20040;-63
2021/05/19 03:55:56;;;;;;;8.13;3.22;;;9.60;99.90;;;;;;4924482;29;20462;-64
2021/05/19 03:58:23;;;;;;;4.47;3.05;;;9.60;99.90;;;;;;4920863;29;20056;-64
2021/05/19 04:00:50;;;;;;;4.15;3.17;;;9.70;99.90;;;;;;4921622;29;20558;-63
2021/05/19 04:03:17;;;;;;;3.25;2.83;;;9.70;99.90;;;;;;4925353;29;20063;-64
2021/05/19 04:05:45;;;;;;;4.70;2.85;;;9.70;99.90;;;;;;4922588;29;20091;-63
2021/05/19 04:08:12;;;;;;;4.25;3.30;;;9.70;99.90;;;;;;4920294;29;20074;-63
2021/05/19 04:10:39;;;;;;;3.78;3.13;;;9.70;99.90;;;;;;4920503;29;20055;-64
2021/05/19 04:13:05;;;;;;;2.83;2.58;;;9.70;99.90;;;;;;4925547;29;20051;-63
2021/05/19 04:15:35;;;;;;;3.08;2.75;;;9.70;99.90;;;;;;4921486;29;20103;-64
2021/05/19 04:18:03;;;;;;;4.35;2.92;;;9.70;99.90;;;;;;4925879;29;20055;-64
2021/05/19 04:20:35;;;;;;;2.83;2.47;;;9.70;99.90;;;;;;4927193;29;20050;-64
2021/05/19 04:23:02;;;;;;;3.22;2.88;;;9.70;99.90;;;;;;4923494;29;20064;-63
2021/05/19 04:25:29;;;;;;;5.68;3.35;;;9.70;99.90;;;;;;4923280;29;20047;-64
2021/05/19 04:27:56;;;;;;;5.43;3.15;;;9.70;99.90;;;;;;4930394;29;20062;-63
2021/05/19 04:30:24;;;;;;;9.00;3.80;;;9.70;99.90;;;;;;4928243;29;20412;-64
2021/05/19 04:32:53;;;;;;;3.35;2.88;;;9.70;99.90;;;;;;4928648;29;20194;-63
2021/05/19 04:35:20;;;;;;;3.90;3.28;;;9.70;99.90;;;;;;4923934;29;20487;-64
2021/05/19 04:37:47;;;;;;;3.55;2.72;;;9.80;99.90;;;;;;4911457;29;20101;-63
2021/05/19 04:40:15;;;;;;;3.75;3.17;;;9.80;99.90;;;;;;4925814;29;20134;-63
2021/05/19 04:42:42;;;;;;;4.82;3.13;;;9.80;99.90;;;;;;4920089;29;20052;-64
2021/05/19 04:45:09;;;;;;;5.18;3.33;;;9.80;99.90;;;;;;4925999;29;20653;-63
2021/05/19 04:47:37;;;;;;;6.00;3.35;;;9.80;99.90;;;;;;4924865;29;20471;-63
2021/05/19 04:50:06;;;;;;;3.35;2.58;;;9.90;99.90;;;;;;4933850;28;20087;-63
2021/05/19 04:52:33;;;;;;;3.60;2.30;;;9.90;99.90;;;;;;4925424;29;20658;-64
2021/05/19 04:55:03;;;;;;;6.55;4.82;;;9.90;99.90;;;;;;4925200;29;20048;-63
2021/05/19 04:57:30;;;;;;;5.57;3.75;;;9.90;99.90;;;;;;4925530;29;20092;-64
2021/05/19 04:59:57;;;;;;;3.67;3.20;;;10.00;99.90;;;;;;4929000;29;20054;-64
2021/05/19 05:02:24;;;;;;;3.63;3.20;;;10.10;99.90;;;;;;4928625;29;20051;-64
2021/05/19 05:04:52;;;;;;;4.40;2.83;;;10.20;99.90;;;;;;4924336;29;20067;-63
2021/05/19 05:07:21;;;;;;;3.63;2.92;;;10.20;99.90;;;;;;4924493;29;20040;-64
2021/05/19 05:09:48;;;;;;;3.55;2.60;;;10.20;99.90;;;;;;4945332;28;20529;-63
2021/05/19 05:12:15;;;;;;;6.35;3.22;;;10.20;99.90;;;;;;4946298;28;20474;-64
2021/05/19 05:14:42;;;;;;;3.45;2.58;;;10.20;99.90;;;;;;4945859;28;20478;-64
2021/05/19 05:17:14;;;;;;;4.05;2.92;;;10.20;99.90;;;;;;4944051;28;20051;-64
2021/05/19 05:19:41;;;;;;;3.95;3.65;;;10.20;99.90;;;;;;4943847;28;20054;-64
2021/05/19 05:22:08;;;;;;;7.35;2.80;;;10.30;99.90;;;;;;4947095;28;20058;-64
2021/05/19 05:24:35;;;;;;;3.65;2.30;;;10.30;99.90;;;;;;4940960;28;20098;-64
2021/05/19 05:27:04;;;;;;;2.90;2.65;;;10.40;99.90;;;;;;4944711;28;20759;-65
2021/05/19 05:29:31;;;;;;;2.75;2.50;;;10.40;99.90;;;;;;4942474;28;23670;-64
2021/05/19 05:31:58;;;;;;;4.78;3.65;;;10.50;99.90;;;;;;4945151;28;20055;-64
2021/05/19 05:34:25;;;;;;;4.93;3.30;;;10.60;99.90;;;;;;4946853;28;20103;-63
2021/05/19 05:36:52;;;;;;;2.78;2.20;;;10.60;99.90;;;;;;4945555;28;20043;-64
2021/05/19 05:39:19;;;;;;;4.30;2.67;;;10.70;99.90;;;;;;4944855;28;20059;-64
2021/05/19 05:41:46;;;;;;;3.15;1.85;;;10.80;99.90;;;;;;4946154;28;20119;-64
2021/05/19 05:44:13;;;;;;;2.22;1.92;;;10.90;99.90;;;;;;4945075;28;20078;-64
2021/05/19 05:46:40;;;;;;;4.45;2.58;;;10.90;99.90;;;;;;4943121;28;20055;-64
2021/05/19 05:49:08;;;;;;;1.92;1.70;;;11.00;99.90;;;;;;4943263;28;20047;-64
2021/05/19 05:51:35;;;;;;;3.88;2.03;;;11.10;99.90;;;;;;4944162;28;20045;-63
2021/05/19 05:54:02;;;;;;;2.72;2.50;;;11.10;99.90;;;;;;4947480;28;20067;-63
2021/05/19 05:56:29;;;;;;;4.05;2.33;;;11.20;99.90;;;;;;4945124;28;20051;-64
2021/05/19 05:58:56;;;;;;;14.50;2.95;;;11.30;99.90;;;;;;4944223;28;20043;-63
2021/05/19 06:01:23;;;;;;;2.65;2.45;;;11.30;99.90;;;;;;4944656;28;20073;-64
2021/05/19 06:03:50;;;;;;;3.25;2.50;;;11.30;99.90;;;;;;4937842;28;20051;-63
2021/05/19 06:06:17;;;;;;;2.67;1.92;;;11.20;99.90;;;;;;4944542;28;20047;-63
2021/05/19 06:08:44;;;;;;;3.47;2.40;;;11.20;99.90;;;;;;4944679;28;20091;-63
2021/05/19 06:11:11;;;;;;;3.45;2.38;;;11.10;99.90;;;;;;4944882;28;20051;-64
2021/05/19 06:13:38;;;;;;;1.92;1.83;;;11.10;99.90;;;;;;4943305;28;20043;-64
2021/05/19 06:16:14;;;;;;;3.06;2.30;;;11.10;99.90;;;;;;2616621;28;10004027;-65
2021/05/19 06:18:41;;;;;;;2.35;2.15;;;11.00;99.90;;;;;;2895463;28;10001874;-63
2021/05/19 06:21:08;;;;;;;2.55;2.35;;;11.00;99.90;;;;;;4940154;28;20059;-64
2021/05/19 06:23:35;;;;;;;3.00;2.70;;;11.00;99.90;;;;;;4940301;28;20055;-63
2021/05/19 06:26:03;;;;;;;2.47;2.28;;;11.00;99.90;;;;;;4947703;28;20051;-63
2021/05/19 06:28:30;;;;;;;3.50;2.17;;;11.00;99.90;;;;;;4942879;28;20051;-64
2021/05/19 06:30:57;;;;;;;3.10;2.15;;;11.10;99.90;;;;;;4949888;28;20055;-64
2021/05/19 06:33:24;;;;;;;5.57;3.15;;;11.10;99.90;;;;;;4942342;28;20051;-64
2021/05/19 06:35:52;;;;;;;3.15;2.20;;;11.10;99.90;;;;;;4947327;28;20051;-64
2021/05/19 06:38:19;;;;;;;3.00;2.80;;;11.10;99.90;;;;;;4943342;28;20074;-63
2021/05/19 06:40:46;;;;;;;1.77;1.65;;;11.10;99.90;;;;;;4943554;28;20051;-64
2021/05/19 06:43:13;;;;;;;3.38;2.67;;;11.00;99.90;;;;;;4940681;28;20055;-64
2021/05/19 06:45:40;;;;;;;5.10;3.40;;;11.00;99.90;;;;;;4951306;28;20047;-63
2021/05/19 06:48:07;;;;;;;4.03;2.95;;;11.00;99.90;;;;;;4943927;28;20046;-64
2021/05/19 06:50:34;;;;;;;3.42;3.08;;;11.10;99.90;;;;;;4948660;28;20047;-63
2021/05/19 06:53:01;;;;;;;5.20;2.88;;;11.00;99.90;;;;;;4942639;28;20059;-63
2021/05/19 06:55:28;;;;;;;2.88;2.22;;;11.10;99.90;;;;;;4945382;28;20498;-64
2021/05/19 06:57:55;;;;;;;2.80;2.60;;;11.10;99.90;;;;;;4944075;28;20044;-64
2021/05/19 07:00:23;;;;;;;4.72;2.35;;;11.10;99.90;;;;;;4946080;28;20051;-63
2021/05/19 07:02:50;;;;;;;2.40;2.20;;;11.20;99.90;;;;;;4941761;28;20051;-64
2021/05/19 07:05:17;;;;;;;2.72;2.20;;;11.10;99.90;;;;;;4950885;28;20067;-64
2021/05/19 07:07:46;;;;;;;2.45;2.25;;;11.20;99.90;;;;;;4940965;28;20065;-64
2021/05/19 07:10:14;;;;;;;2.33;2.13;;;11.10;99.90;;;;;;4950356;28;20417;-64
2021/05/19 07:12:42;;;;;;;3.33;2.90;;;11.10;99.90;;;;;;4941780;28;20058;-64
2021/05/19 07:15:12;;;;;;;3.55;2.90;;;11.10;99.90;;;;;;4946745;28;20394;-64
2021/05/19 07:17:41;;;;;;;2.78;2.58;;;11.20;99.90;;;;;;4940181;28;20070;-64
2021/05/19 07:20:10;;;;;;;3.63;2.60;;;11.10;99.90;;;;;;4943401;28;20055;-63
2021/05/19 07:22:41;;;;;;;1.73;1.60;;;11.00;99.90;;;;;;4941717;28;20121;-64
2021/05/19 07:25:08;;;;;;;3.58;2.28;;;11.10;99.90;;;;;;4944047;29;20106;-63
2021/05/19 07:27:36;;;;;;;3.53;2.58;;;11.20;99.90;;;;;;4939377;28;20672;-64
2021/05/19 07:30:04;;;;;;;3.85;2.00;;;11.10;99.90;;;;;;4945784;28;20450;-63
2021/05/19 07:32:30;;;;;;;7.45;2.67;;;11.20;99.90;;;;;;4939216;28;20035;-64
2021/05/19 07:34:57;;;;;;;2.08;1.92;;;11.20;99.90;;;;;;4946083;28;20031;-63
2021/05/19 07:37:24;;;;;;;1.98;1.50;;;11.20;99.90;;;;;;4934799;28;20055;-64
2021/05/19 07:39:51;;;;;;;3.53;1.88;;;11.20;99.90;;;;;;4944905;28;20049;-64
2021/05/19 07:42:19;;;;;;;3.38;2.08;;;11.20;99.90;;;;;;4940679;28;20103;-63
2021/05/19 07:44:46;;;;;;;5.00;2.70;;;11.30;99.90;;;;;;4950538;28;20146;-63
2021/05/19 07:47:12;;;;;;;3.35;2.60;;;11.20;99.90;;;;;;4940504;28;20058;-64
2021/05/19 07:49:39;;;;;;;4.40;2.08;;;11.30;99.90;;;;;;4951544;28;20035;-64
2021/05/19 07:52:06;;;;;;;3.75;3.40;;;11.40;99.90;;;;;;4942752;28;20048;-63
2021/05/19 07:54:34;;;;;;;3.40;2.22;;;11.50;99.90;;;;;;4946651;28;20054;-64
2021/05/19 07:57:24;;;;;;;2.45;1.98;;;11.50;99.90;;;;;;4942717;28;20126;-64
2021/05/19 07:59:49;;;;;;;3.15;2.40;;;11.50;99.90;;;;;;4938021;28;20043;-64
2021/05/19 08:02:16;;;;;;;2.53;2.00;;;11.50;99.90;;;;;;4941276;28;20158;-63
2021/05/19 08:04:44;;;;;;;3.53;2.63;;;11.50;99.90;;;;;;4945759;28;20081;-64
2021/05/19 08:07:09;;;;;;;2.47;2.28;;;11.50;99.90;;;;;;4940934;28;20039;-64
2021/05/19 08:09:35;;;;;;;2.80;2.47;;;11.60;99.90;;;;;;4942033;28;20052;-64
2021/05/19 08:12:01;;;;;;;2.25;2.05;;;11.60;99.90;;;;;;4939732;28;20047;-64
2021/05/19 08:14:29;;;;;;;4.10;2.10;;;11.70;99.90;;;;;;4945497;28;20052;-63
2021/05/19 08:16:57;;;;;;;3.38;2.65;;;11.70;99.90;;;;;;4940481;28;20126;-64
2021/05/19 08:19:23;;;;;;;5.13;2.75;;;11.60;99.90;;;;;;4944486;28;20051;-64
2021/05/19 08:21:49;;;;;;;9.52;3.22;;;11.70;99.90;;;;;;4942925;28;20043;-64
2021/05/19 08:24:16;;;;;;;3.30;2.92;;;11.80;99.90;;;;;;4945552;28;20058;-63
2021/05/19 08:26:43;;;;;;;2.70;2.42;;;11.60;99.90;;;;;;4940742;28;20545;-64
2021/05/19 08:29:10;;;;;;;3.30;3.00;;;11.60;99.90;;;;;;4940145;28;20059;-64
2021/05/19 08:31:37;;;;;;;3.38;3.08;;;11.60;99.90;;;;;;4940882;28;20043;-64
2021/05/19 08:34:13;;;;;;;4.55;3.00;;;11.70;99.90;;;;;;4942805;28;20442;-64
2021/05/19 08:36:40;;;;;;;4.03;3.25;;;11.90;99.90;;;;;;4943080;28;20063;-64
2021/05/19 08:39:08;;;;;;;3.03;2.58;;;11.90;99.90;;;;;;4940024;28;20066;-63
2021/05/19 08:41:35;;;;;;;4.40;3.20;;;11.70;99.90;;;;;;4940398;28;20088;-63
2021/05/19 08:44:06;;;;;;;3.13;2.83;;;11.90;99.90;;;;;;4940375;28;20039;-64
2021/05/19 08:46:33;;;;;;;4.50;3.20;;;12.00;99.90;;;;;;4944461;28;20489;-64
2021/05/19 08:49:03;;;;;;;3.55;3.25;;;12.10;99.90;;;;;;4946364;28;20145;-64
2021/05/19 08:51:31;;;;;;;3.15;2.88;;;12.10;99.90;;;;;;4940907;28;21567;-63
2021/05/19 08:53:58;;;;;;;4.75;3.10;;;12.00;99.90;;;;;;4946415;28;20054;-64
2021/05/19 08:56:25;;;;;;;3.13;2.83;;;12.20;99.90;;;;;;4940757;28;20196;-63
2021/05/19 08:58:52;;;;;;;4.40;3.65;;;12.30;99.90;;;;;;4941985;28;20051;-64
2021/05/19 09:01:23;;;;;;;4.07;3.78;;;12.30;99.90;;;;;;4946375;28;20058;-64
2021/05/19 09:04:04;;;;;;;3.55;3.15;;;12.30;99.90;;;;;;4936884;28;20047;-64
2021/05/19 09:06:35;;;;;;;3.95;3.58;;;12.30;99.90;;;;;;4953426;28;20073;-63
2021/05/19 09:09:28;;;;;;;6.38;3.70;;;12.40;99.90;;;;;;4943912;28;20094;-64
2021/05/19 09:12:10;;;;;;;4.22;3.78;;;12.70;99.90;;;;;;4948379;28;20043;-64
2021/05/19 09:14:43;;;;;;;3.80;3.50;;;12.90;99.90;;;;;;4945584;28;20549;-64
2021/05/19 09:17:25;;;;;;;3.63;3.33;;;12.80;99.90;;;;;;4947369;28;20099;-64
2021/05/19 09:20:08;;;;;;;3.75;3.20;;;12.80;99.90;;;;;;4944407;28;20047;-63
2021/05/19 09:22:37;;;;;;;3.78;3.40;;;13.00;99.90;;;;;;4945275;28;20051;-63
2021/05/19 09:25:22;;;;;;;4.32;3.92;;;12.90;99.90;;;;;;4947999;28;20081;-63
2021/05/19 09:27:50;;;;;;;4.75;3.45;;;13.00;99.90;;;;;;4938259;28;20110;-64
2021/05/19 09:30:34;;;;;;;4.43;4.03;;;13.00;99.90;;;;;;4950651;28;20059;-64
2021/05/19 09:33:21;;;;;;;3.58;3.15;;;12.90;99.90;;;;;;4939583;28;20444;-63
2021/05/19 09:36:15;;;;;;;4.13;3.08;;;13.00;99.90;;;;;;4949579;28;20091;-64
2021/05/19 09:38:51;;;;;;;8.70;3.97;;;13.10;99.90;;;;;;4944830;28;20055;-64
2021/05/19 09:41:31;;;;;;;3.63;3.33;;;13.20;99.90;;;;;;4951032;28;20058;-64
2021/05/19 09:44:00;;;;;;;3.33;3.03;;;13.10;99.90;;;;;;4943640;28;20480;-64
2021/05/19 09:49:19;;;;;;;4.55;4.10;;;13.10;99.90;;;;;;4944639;28;20537;-64
2021/05/19 09:52:16;;;;;;;3.85;3.55;;;13.10;99.90;;;;;;4942992;28;20498;-64
2021/05/19 09:54:44;;;;;;;3.35;3.05;;;13.20;99.90;;;;;;4945311;28;20114;-65
2021/05/19 09:57:16;;;;;;;3.38;2.63;;;13.10;99.90;;;;;;4942210;28;20051;-66
2021/05/19 09:59:45;;;;;;;6.80;3.35;;;13.30;99.90;;;;;;4946075;28;20131;-64
2021/05/19 10:02:12;;;;;;;4.78;4.38;;;13.40;99.90;;;;;;4945298;28;20070;-64
2021/05/19 10:04:44;;;;;;;9.85;3.10;;;13.60;99.90;;;;;;4926550;29;20130;-64
2021/05/19 10:07:14;;;;;;;3.38;3.05;;;13.70;99.90;;;;;;4944175;28;20489;-64
2021/05/19 10:09:42;;;;;;;3.28;2.92;;;13.70;99.90;;;;;;4942106;28;20458;-64
2021/05/19 10:12:12;;;;;;;3.97;2.63;;;13.70;99.90;;;;;;4944430;28;20489;-64
2021/05/19 10:14:40;;;;;;;3.47;3.17;;;13.60;99.90;;;;;;4947266;28;20074;-64
2021/05/19 10:17:10;;;;;;;3.15;2.85;;;13.80;99.90;;;;;;4945359;28;20047;-64
2021/05/19 10:20:00;;;;;;;3.10;2.90;;;13.90;99.90;;;;;;4945294;28;20039;-63
2021/05/19 10:22:29;;;;;;;4.00;2.88;;;13.80;99.90;;;;;;4941487;28;20047;-64
2021/05/19 10:25:06;;;;;;;2.85;2.55;;;14.00;99.90;;;;;;4947499;28;20047;-64
2021/05/19 10:27:52;;;;;;;2.67;2.42;;;13.80;99.90;;;;;;4942436;28;20043;-64
2021/05/19 10:30:50;;;;;;;4.95;2.90;;;13.80;99.90;;;;;;4946882;28;20078;-63
2021/05/19 10:33:26;;;;;;;3.85;3.47;;;13.60;99.90;;;;;;4941382;28;20067;-64
2021/05/19 10:36:14;;;;;;;3.45;3.15;;;13.60;99.90;;;;;;4948099;28;20118;-64
2021/05/19 10:38:41;;;;;;;3.42;2.97;;;13.80;99.90;;;;;;4930896;28;20305;-64
2021/05/19 10:41:08;;;;;;;3.03;2.40;;;13.90;99.90;;;;;;4945322;28;20523;-64
2021/05/19 10:43:45;;;;;;;3.40;3.13;;;13.90;99.90;;;;;;4942567;28;20058;-64
2021/05/19 10:46:14;;;;;;;3.50;3.20;;;13.90;99.90;;;;;;4943757;28;20049;-64
2021/05/19 10:48:50;;;;;;;4.68;2.47;;;14.10;99.90;;;;;;4927205;28;20040;-64
2021/05/19 10:51:39;;;;;;;3.45;3.15;;;14.30;99.90;;;;;;4941428;28;20058;-64
2021/05/19 10:57:28;;;;;;;2.42;2.22;;;14.50;99.90;;;;;;4941719;28;20056;-64
2021/05/19 11:03:02;;;;;;;3.58;2.30;;;14.40;99.90;;;;;;4940091;28;20074;-64
2021/05/19 11:06:00;;;;;;;3.92;2.42;;;14.60;99.90;;;;;;4944675;28;20063;-64
2021/05/19 11:08:28;;;;;;;3.47;2.42;;;14.70;99.90;;;;;;4943692;28;20054;-64
2021/05/19 11:11:16;;;;;;;2.35;1.80;;;14.80;99.90;;;;;;4946323;28;20047;-64
2021/05/19 11:14:03;;;;;;;3.03;2.17;;;14.90;99.90;;;;;;4941779;28;20050;-64
2021/05/19 11:16:53;;;;;;;2.47;2.20;;;14.70;99.90;;;;;;4945904;28;20055;-64
2021/05/19 11:19:35;;;;;;;2.88;2.67;;;14.70;99.90;;;;;;4941368;28;20047;-64
2021/05/19 11:22:05;;;;;;;5.38;2.80;;;14.60;99.90;;;;;;4942833;28;20050;-64
2021/05/19 11:24:48;;;;;;;2.58;2.38;;;14.70;99.90;;;;;;4950530;28;20058;-64
2021/05/19 11:27:17;;;;;;;2.55;2.03;;;14.80;99.90;;;;;;4939034;28;20501;-64
2021/05/19 11:29:46;;;;;;;2.75;2.55;;;15.00;99.90;;;;;;4945943;28;20055;-64
2021/05/19 11:32:17;;;;;;;2.53;2.33;;;15.00;99.90;;;;;;4931761;29;20258;-64
2021/05/19 11:34:46;;;;;;;3.78;2.60;;;15.10;99.90;;;;;;4935875;28;20047;-64
2021/05/19 11:37:15;;;;;;;2.95;2.65;;;15.20;99.90;;;;;;4955648;28;20070;-64
2021/05/19 11:39:53;;;;;;;4.07;2.60;;;15.30;99.90;;;;;;4944111;28;20505;-64
2021/05/19 11:42:36;;;;;;;2.70;2.50;;;15.30;99.90;;;;;;4940711;28;20105;-64
2021/05/19 11:45:08;;;;;;;2.50;2.30;;;15.30;99.90;;;;;;4945203;28;20816;-64
2021/05/19 11:47:38;;;;;;;4.05;3.65;;;15.50;99.90;;;;;;4940036;28;20568;-64
2021/05/19 11:50:20;;;;;;;2.28;1.90;;;15.70;99.90;;;;;;4947782;28;20055;-64
2021/05/19 11:52:57;;;;;;;4.32;1.83;;;15.80;99.90;;;;;;4941270;28;20455;-64
2021/05/19 11:55:41;;;;;;;3.35;2.55;;;15.90;99.90;;;;;;4944990;28;20036;-64
2021/05/19 11:58:11;;;;;;;2.42;2.00;;;16.00;99.90;;;;;;4943672;28;20039;-64
2021/05/19 12:00:41;;;;;;;5.07;2.95;;;16.00;99.90;;;;;;4946136;28;20500;-65
2021/05/19 12:03:10;;;;;;;2.25;1.80;;;15.90;99.90;;;;;;4942356;28;20055;-64
2021/05/19 12:05:50;;;;;;;2.67;1.73;;;15.80;99.90;;;;;;4945504;28;20051;-64
2021/05/19 12:08:21;;;;;;;3.38;1.98;;;15.80;99.90;;;;;;4941631;28;20051;-64
2021/05/19 12:11:01;;;;;;;5.43;2.13;;;15.50;99.90;;;;;;4940503;28;20077;-64
2021/05/19 12:13:29;;;;;;;;;;;15.40;99.90;;;;;;4944166;28;20106;-64
2021/05/19 12:15:57;;;;;;;1.60;1.50;;;15.30;99.90;;;;;;4940340;28;19926;-64
2021/05/19 12:18:24;;;;;;;3.00;1.73;;;15.60;99.90;;;;;;4952130;28;20062;-64
2021/05/19 12:20:51;;;;;;;3.50;1.80;;;15.90;99.90;;;;;;4941762;28;20104;-64
2021/05/19 12:23:18;;;;;;;1.90;1.80;;;16.10;99.90;;;;;;4956928;28;20103;-64
2021/05/19 12:25:45;;;;;;;2.78;1.70;;;16.00;99.90;;;;;;4940684;28;20121;-64
2021/05/19 12:28:24;;;;;;;1.38;1.27;;;16.00;99.90;;;;;;4952566;28;20071;-64
2021/05/19 12:30:53;;;;;;;2.72;2.38;;;16.20;99.90;;;;;;4940732;28;20465;-64
2021/05/19 12:33:25;;;;;;;1.60;1.50;;;16.00;99.90;;;;;;4942328;28;20059;-65
2021/05/19 12:35:53;;;;;;;1.75;1.65;;;15.90;99.90;;;;;;4940695;28;20097;-64
2021/05/19 12:38:25;;;;;;;3.08;2.78;;;16.20;99.90;;;;;;4942885;28;20051;-64
2021/05/19 12:40:53;;;;;;;2.97;2.78;;;16.40;99.90;;;;;;4945857;28;20055;-64
2021/05/19 12:43:28;;;;;;;1.80;1.70;;;16.50;99.90;;;;;;4940711;28;20111;-64
2021/05/19 12:46:13;;;;;;;2.00;1.77;;;16.60;99.90;;;;;;4944053;28;20042;-64
2021/05/19 12:48:52;;;;;;;3.72;1.80;;;16.70;99.90;;;;;;4946421;28;20048;-64
2021/05/19 12:51:19;;;;;;;1.45;1.35;;;16.70;99.90;;;;;;4943755;28;20055;-64
2021/05/19 12:53:48;;;;;;;3.17;2.13;;;16.80;99.90;;;;;;4950657;28;20401;-64
2021/05/19 12:56:28;;;;;;;1.75;1.65;;;16.60;99.90;;;;;;4946438;28;20803;-64
2021/05/19 12:59:06;;;;;;;2.95;1.45;;;16.60;99.90;;;;;;4938942;28;20051;-64
2021/05/19 13:01:47;;;;;;;2.05;1.33;;;16.50;99.90;;;;;;4943740;28;20114;-64
2021/05/19 13:04:15;;;;;;;4.28;1.42;;;16.60;99.90;;;;;;4935547;28;20106;-64
2021/05/19 13:06:42;;;;;;;1.50;1.38;;;16.60;99.90;;;;;;4945584;28;20047;-65
2021/05/19 13:09:18;;;;;;;3.65;1.88;;;16.80;99.90;;;;;;4943365;28;20063;-65
2021/05/19 13:11:51;;;;;;;4.28;1.85;;;17.00;99.90;;;;;;4944001;28;20059;-64
2021/05/19 13:14:35;;;;;;;1.77;1.67;;;17.10;99.90;;;;;;4940454;28;20078;-64
2021/05/19 13:17:07;;;;;;;2.05;1.50;;;17.20;99.90;;;;;;4944880;28;20066;-64